Map

Track Data

SID SEASON NUMBER BASIN SUBBASIN NAME ISO_TIME NATURE LAT LON WMO_WIND WMO_PRES WMO_AGENCY TRACK_TYPE DIST2LAND LANDFALL IFLAG USA_AGENCY USA_ATCF_ID USA_LAT USA_LON USA_RECORD USA_STATUS USA_WIND USA_PRES USA_SSHS USA_R34_NE USA_R34_SE USA_R34_SW USA_R34_NW USA_R50_NE USA_R50_SE USA_R50_SW USA_R50_NW USA_R64_NE USA_R64_SE USA_R64_SW USA_R64_NW USA_POCI USA_ROCI USA_RMW USA_EYE TOKYO_LAT TOKYO_LON TOKYO_GRADE TOKYO_WIND TOKYO_PRES TOKYO_R50_DIR TOKYO_R50_LONG TOKYO_R50_SHORT TOKYO_R30_DIR TOKYO_R30_LONG TOKYO_R30_SHORT TOKYO_LAND CMA_LAT CMA_LON CMA_CAT CMA_WIND CMA_PRES HKO_LAT HKO_LON HKO_CAT HKO_WIND HKO_PRES NEWDELHI_LAT NEWDELHI_LON NEWDELHI_GRADE NEWDELHI_WIND NEWDELHI_PRES NEWDELHI_CI NEWDELHI_DP NEWDELHI_POCI REUNION_LAT REUNION_LON REUNION_TYPE REUNION_WIND REUNION_PRES REUNION_TNUM REUNION_CI REUNION_RMW REUNION_R34_NE REUNION_R34_SE REUNION_R34_SW REUNION_R34_NW REUNION_R50_NE REUNION_R50_SE REUNION_R50_SW REUNION_R50_NW REUNION_R64_NE REUNION_R64_SE REUNION_R64_SW REUNION_R64_NW BOM_LAT BOM_LON BOM_TYPE BOM_WIND BOM_PRES BOM_TNUM BOM_CI BOM_RMW BOM_R34_NE BOM_R34_SE BOM_R34_SW BOM_R34_NW BOM_R50_NE BOM_R50_SE BOM_R50_SW BOM_R50_NW BOM_R64_NE BOM_R64_SE BOM_R64_SW BOM_R64_NW BOM_ROCI BOM_POCI BOM_EYE BOM_POS_METHOD BOM_PRES_METHOD NADI_LAT NADI_LON NADI_CAT NADI_WIND NADI_PRES WELLINGTON_LAT WELLINGTON_LON WELLINGTON_WIND WELLINGTON_PRES DS824_LAT DS824_LON DS824_STAGE DS824_WIND DS824_PRES TD9636_LAT TD9636_LON TD9636_STAGE TD9636_WIND TD9636_PRES TD9635_LAT TD9635_LON TD9635_WIND TD9635_PRES TD9635_ROCI NEUMANN_LAT NEUMANN_LON NEUMANN_CLASS NEUMANN_WIND NEUMANN_PRES MLC_LAT MLC_LON MLC_CLASS MLC_WIND MLC_PRES USA_GUST BOM_GUST BOM_GUST_PER REUNION_GUST REUNION_GUST_PER USA_SEAHGT USA_SEARAD_NE USA_SEARAD_SE USA_SEARAD_SW USA_SEARAD_NW STORM_SPEED STORM_DIR
1947286N11152 1947 80 WP MM ALICE 1947-10-13 06:00:00 TS 11.4000 152.000 main 1584 1584 O________O_O__ jtwc_wp WP181947 11.4000 152.000 60 0 11.4000 152.000 TC 60 11.4000 152.000 60 992 180 2 12
1947286N11152 1947 80 WP MM ALICE 1947-10-13 09:00:00 TS 11.5025 152.000 main 1595 1595 P________P_P__ WP181947 11.5025 152.000 62 0 11.5025 152.000 TC 62 11.5025 152.000 62 990 210 2 8
1947286N11152 1947 80 WP MM ALICE 1947-10-13 12:00:00 TS 11.6000 152.000 main 1606 1606 O________OOO__ jtwc_wp WP181947 11.6000 152.000 65 1 11.6000 152.000 TC 65 11.6000 152.000 3 65 11.6000 152.000 65 989 240 2 0
1947286N11152 1947 80 WP MM ALICE 1947-10-13 15:00:00 TS 11.6971 151.998 main 1618 1618 P________PPP__ WP181947 11.6925 152.000 67 1 11.6925 152.000 TC 67 11.7250 151.983 3 67 11.6925 152.000 67 987 270 2 0
1947286N11152 1947 80 WP MM ALICE 1947-10-13 18:00:00 TS 11.8100 151.995 main 1629 1629 O________OPO__ jtwc_wp WP181947 11.8000 152.000 70 1 11.8000 152.000 TC 70 11.8500 151.973 3 70 11.8000 152.000 70 986 300 3 357
1947286N11152 1947 80 WP MM ALICE 1947-10-13 21:00:00 TS 11.9563 151.994 main 1651 1651 P________PPP__ WP181947 11.9500 152.000 72 1 11.9500 152.000 TC 72 11.9750 151.976 3 72 11.9500 152.000 72 984 240 3 4
1947286N11152 1947 80 WP MM ALICE 1947-10-14 00:00:00 TS 12.1000 152.000 main 1662 1662 O________OOO__ jtwc_wp WP181947 12.1000 152.000 75 1 12.1000 152.000 TC 75 12.1000 152.000 4 75 12.1000 152.000 75 983 180 3 3
1947286N11152 1947 80 WP MM ALICE 1947-10-14 03:00:00 TS 12.2062 151.995 main 1673 1673 P________PPP__ WP181947 12.2000 151.978 77 1 12.2000 151.978 TC 77 12.2250 152.049 4 77 12.2000 151.978 77 981 180 2 11
1947286N11152 1947 80 WP MM ALICE 1947-10-14 06:00:00 TS 12.3125 152.030 main 1685 1685 O________OPO__ jtwc_wp WP181947 12.3000 152.000 80 1 12.3000 152.000 TC 80 12.3500 152.120 4 80 12.3000 152.000 80 980 180 3 32
1947286N11152 1947 80 WP MM ALICE 1947-10-14 09:00:00 TS 12.4563 152.153 main 1709 1709 P________PPP__ WP181947 12.4500 152.135 82 1 12.4500 152.135 TC 82 12.4750 152.206 4 82 12.4500 152.135 82 978 180 4 42
1947286N11152 1947 80 WP MM ALICE 1947-10-14 12:00:00 TS 12.6000 152.300 main 1721 1721 O________OOO__ jtwc_wp WP181947 12.6000 152.300 85 2 12.6000 152.300 TC 85 12.6000 152.300 4 85 12.6000 152.300 85 977 180 3 45
1947286N11152 1947 80 WP MM ALICE 1947-10-14 15:00:00 TS 12.6991 152.403 main 1733 1733 P________PPP__ WP181947 12.7000 152.408 87 2 12.7000 152.408 TC 87 12.6966 152.389 4 88 12.7000 152.408 87 975 180 3 43
1947286N11152 1947 80 WP MM ALICE 1947-10-14 18:00:00 TS 12.7994 152.496 main 1745 1745 O________OPO__ jtwc_wp WP181947 12.8000 152.500 90 2 12.8000 152.500 TC 90 12.7975 152.485 4 92 12.8000 152.500 90 974 180 3 40
1947286N11152 1947 80 WP MM ALICE 1947-10-14 21:00:00 TS 12.9268 152.603 main 1757 1757 P________PPP__ WP181947 12.9275 152.607 95 2 12.9275 152.607 TC 95 12.9247 152.589 4 96 12.9275 152.607 95 972 180 4 33
1947286N11152 1947 80 WP MM ALICE 1947-10-15 00:00:00 TS 13.1000 152.700 main 1781 1781 O________OOO__ jtwc_wp WP181947 13.1000 152.700 100 3 13.1000 152.700 TC 100 13.1000 152.700 4 100 13.1000 152.700 100 971 180 4 21
1947286N11152 1947 80 WP MM ALICE 1947-10-15 03:00:00 TS 13.3254 152.763 main 1804 1804 P________PPP__ WP181947 13.3200 152.735 105 3 13.3200 152.735 TC 105 13.3416 152.846 4 103 13.3200 152.735 105 969 210 5 16
1947286N11152 1947 80 WP MM ALICE 1947-10-15 06:00:00 TS 13.6082 152.849 main 1838 1838 O________OPO__ jtwc_wp WP181947 13.6000 152.800 110 3 13.6000 152.800 TC 110 13.6326 152.995 4 107 13.6000 152.800 110 968 240 7 22
1947286N11152 1947 80 WP MM ALICE 1947-10-15 09:00:00 TS 13.9406 153.025 main 1874 1874 P________PPP__ WP181947 13.9351 152.992 112 3 13.9351 152.992 TC 112 13.9573 153.121 4 111 13.9351 152.992 112 964 210 8 26
1947286N11152 1947 80 WP MM ALICE 1947-10-15 12:00:00 TS 14.3000 153.200 main 1921 1921 O________OOO__ jtwc_wp WP181947 14.3000 153.200 115 4 14.3000 153.200 TC 115 14.3000 153.200 4 115 14.3000 153.200 115 960 180 8 23
1947286N11152 1947 80 WP MM ALICE 1947-10-15 15:00:00 TS 14.6494 153.330 main 1956 1956 P________PPP__ WP181947 14.6500 153.360 115 4 14.6500 153.360 TC 115 14.6476 153.241 4 113 14.6500 153.360 115 956 180 7 12
1947286N11152 1947 80 WP MM ALICE 1947-10-15 18:00:00 TS 15.0018 153.357 main 2001 2001 O________OPO__ jtwc_wp WP181947 15.0000 153.400 115 4 15.0000 153.400 TC 115 15.0072 153.227 4 112 15.0000 153.400 115 953 180 7 353
1947286N11152 1947 80 WP MM ALICE 1947-10-15 21:00:00 TS 15.3701 153.238 main 2043 2043 P________PPP__ WP181947 15.3725 153.268 112 3 15.3725 153.268 TC 112 15.3632 153.150 4 111 15.3725 153.268 112 953 210 8 334
1947286N11152 1947 80 WP MM ALICE 1947-10-16 00:00:00 TS 15.7000 153.000 main 2074 2074 O________OOO__ jtwc_wp WP181947 15.7000 153.000 110 3 15.7000 153.000 TC 110 15.7000 153.000 4 110 15.7000 153.000 110 954 240 8 315
1947286N11152 1947 80 WP MM ALICE 1947-10-16 03:00:00 TS 15.9132 152.675 main 2093 2092 P________PPP__ WP181947 15.9001 152.657 105 3 15.9001 152.657 TC 105 15.9524 152.728 4 107 15.9001 152.657 105 954 300 8 303
1947286N11152 1947 80 WP MM ALICE 1947-10-16 06:00:00 TS 16.1227 152.323 main 2108 2108 O________OPO__ jtwc_wp WP181947 16.1000 152.300 100 3 16.1000 152.300 TC 100 16.1908 152.393 4 105 16.1000 152.300 100 955 360 8 309
1947286N11152 1947 80 WP MM ALICE 1947-10-16 09:00:00 TS 16.4184 152.025 main 2133 2133 P________PPP__ WP181947 16.4050 152.013 100 3 16.4050 152.013 TC 100 16.4587 152.062 4 102 16.4050 152.013 100 955 360 8 323
1947286N11152 1947 80 WP MM ALICE 1947-10-16 12:00:00 TS 16.8000 151.800 main 2171 2171 O________OOO__ jtwc_wp WP181947 16.8000 151.800 100 3 16.8000 151.800 TC 100 16.8000 151.800 4 100 16.8000 151.800 100 956 360 9 338
1947286N11152 1947 80 WP MM ALICE 1947-10-16 15:00:00 TS 17.2726 151.664 main 2223 2223 P________PPP__ WP181947 17.2625 151.655 100 3 17.2625 151.655 TC 100 17.3032 151.691 4 100 17.2625 151.655 100 956 360 10 350
1947286N11152 1947 80 WP MM ALICE 1947-10-16 18:00:00 TS 17.8193 151.615 main 2232 2174 O________OPO__ jtwc_wp WP181947 17.8000 151.600 100 3 17.8000 151.600 TC 100 17.8772 151.659 4 100 17.8000 151.600 100 957 360 12 0
1947286N11152 1947 80 WP MM ALICE 1947-10-16 21:00:00 TS 18.4325 151.639 main 2174 2121 P________PPP__ WP181947 18.4225 151.627 100 3 18.4225 151.627 TC 100 18.4627 151.673 4 100 18.4225 151.627 100 957 330 12 4
1947286N11152 1947 80 WP MM ALICE 1947-10-17 00:00:00 TS 19.0000 151.700 main 2121 2083 O________OOO__ jtwc_wp WP181947 19.0000 151.700 100 3 19.0000 151.700 TC 100 19.0000 151.700 4 100 19.0000 151.700 100 958 300 10 6
1947286N11152 1947 80 WP MM ALICE 1947-10-17 03:00:00 TS 19.3945 151.749 main 2083 2059 P________PPP__ WP181947 19.3875 151.765 100 3 19.3875 151.765 TC 100 19.4156 151.701 4 100 19.3875 151.765 100 958 330 7 5
1947286N11152 1947 80 WP MM ALICE 1947-10-17 06:00:00 TS 19.7187 151.777 main 2059 2031 O________OPO__ jtwc_wp WP181947 19.7000 151.800 100 3 19.7000 151.800 TC 100 19.7749 151.707 4 100 19.7000 151.800 100 959 360 7 0
1947286N11152 1947 80 WP MM ALICE 1947-10-17 09:00:00 TS 20.0673 151.763 main 2021 1987 P________PPP__ WP181947 20.0575 151.780 100 3 20.0575 151.780 TC 100 20.0968 151.710 4 100 20.0575 151.780 100 959 300 7 355
1947286N11152 1947 80 WP MM ALICE 1947-10-17 12:00:00 TS 20.4000 151.700 main 1987 1953 O________OOO__ jtwc_wp WP181947 20.4000 151.700 100 3 20.4000 151.700 TC 100 20.4000 151.700 4 100 20.4000 151.700 100 960 240 7 344
1947286N11152 1947 80 WP MM ALICE 1947-10-17 15:00:00 TS 20.7164 151.558 main 1953 1913 P________PPP__ WP181947 20.7076 151.535 100 3 20.7076 151.535 TC 100 20.7428 151.628 4 100 20.7076 151.535 100 960 240 7 338
1947286N11152 1947 80 WP MM ALICE 1947-10-17 18:00:00 TS 21.0169 151.437 main 1913 1885 O________OPO__ jtwc_wp WP181947 21.0000 151.400 100 3 21.0000 151.400 TC 100 21.0674 151.548 4 100 21.0000 151.400 100 961 240 6 348
1947286N11152 1947 80 WP MM ALICE 1947-10-17 21:00:00 TS 21.3314 151.427 main 1885 1862 P________PPP__ WP181947 21.3225 151.405 100 3 21.3225 151.405 TC 100 21.3583 151.494 4 100 21.3225 151.405 100 958 270 6 5
1947286N11152 1947 80 WP MM ALICE 1947-10-18 00:00:00 TS 21.6000 151.500 main 1862 1849 O________OOO__ jtwc_wp WP181947 21.6000 151.500 100 3 21.6000 151.500 TC 100 21.6000 151.500 4 100 21.6000 151.500 100 955 300 5 22
1947286N11152 1947 80 WP MM ALICE 1947-10-18 03:00:00 TS 21.7819 151.621 main 1849 1846 P________PPP__ WP181947 21.7800 151.628 105 3 21.7800 151.628 TC 105 21.7875 151.602 4 105 21.7800 151.628 105 952 300 4 42
1947286N11152 1947 80 WP MM ALICE 1947-10-18 06:00:00 TS 21.9063 151.792 main 1851 1848 O________OPO__ jtwc_wp WP181947 21.9000 151.800 110 3 21.9000 151.800 TC 110 21.9250 151.767 4 110 21.9000 151.800 110 950 300 4 55
1947286N11152 1947 80 WP MM ALICE 1947-10-18 09:00:00 TS 22.0175 151.988 main 1854 1851 P________PPP__ WP181947 22.0150 151.993 115 4 22.0150 151.993 TC 115 22.0250 151.974 4 115 22.0150 151.993 115 947 300 4 63
1947286N11152 1947 80 WP MM ALICE 1947-10-18 12:00:00 TS 22.1000 152.200 main 1857 1857 O________OOO__ jtwc_wp WP181947 22.1000 152.200 120 4 22.1000 152.200 TC 120 22.1000 152.200 4 120 22.1000 152.200 120 945 300 4 71
1947286N11152 1947 80 WP MM ALICE 1947-10-18 15:00:00 TS 22.1498 152.397 main 1869 1860 P________PPP__ WP181947 22.1574 152.393 120 4 22.1574 152.393 TC 120 22.1269 152.411 4 117 22.1574 152.393 120 942 300 4 77
1947286N11152 1947 80 WP MM ALICE 1947-10-18 18:00:00 TS 22.1850 152.609 main 1872 1872 O________OPO__ jtwc_wp WP181947 22.2000 152.600 120 4 22.2000 152.600 TC 120 22.1400 152.636 4 115 22.2000 152.600 120 940 300 4 81
1947286N11152 1947 80 WP MM ALICE 1947-10-18 21:00:00 TS 22.2164 152.843 main 1884 1884 P________PPP__ WP181947 22.2275 152.835 115 4 22.2275 152.835 TC 115 22.1831 152.868 4 112 22.2275 152.835 115 942 300 5 76
1947286N11152 1947 80 WP MM ALICE 1947-10-19 00:00:00 TS 22.3000 153.100 main 1894 1891 O________OOO__ jtwc_wp WP181947 22.3000 153.100 110 3 22.3000 153.100 TC 110 22.3000 153.100 4 110 22.3000 153.100 110 945 300 6 66
1947286N11152 1947 80 WP MM ALICE 1947-10-19 03:00:00 TS 22.4483 153.409 main 1904 1895 P________PPP__ WP181947 22.4401 153.415 105 3 22.4401 153.415 TC 105 22.4731 153.392 4 102 22.4401 153.415 105 947 300 7 53
1947286N11152 1947 80 WP MM ALICE 1947-10-19 06:00:00 TS 22.7082 153.694 main 1898 1877 O________OPO__ jtwc_wp WP181947 22.7000 153.700 100 3 22.7000 153.700 TC 100 22.7329 153.675 4 95 22.7000 153.700 100 950 300 8 36
1947286N11152 1947 80 WP MM ALICE 1947-10-19 09:00:00 TS 23.0815 153.900 main 1877 1842 P________PPP__ WP181947 23.0750 153.902 90 2 23.0750 153.902 TC 90 23.1012 153.895 4 87 23.0750 153.902 90 952 270 9 18
1947286N11152 1947 80 WP MM ALICE 1947-10-19 12:00:00 TS 23.6000 154.000 main 1842 1793 O________OOO__ jtwc_wp WP181947 23.6000 154.000 80 1 23.6000 154.000 TC 80 23.6000 154.000 4 80 23.6000 154.000 80 955 240 12 5
1947286N11152 1947 80 WP MM ALICE 1947-10-19 15:00:00 TS 24.2403 154.006 main 1793 1722 P________PPP__ WP181947 24.2399 154.024 75 1 24.2399 154.024 TC 75 24.2417 153.952 4 76 24.2399 154.024 75 958 210 14 356
1947286N11152 1947 80 WP MM ALICE 1947-10-19 18:00:00 TS 24.9996 153.875 main 1722 1644 O________OPO__ jtwc_wp WP181947 25.0000 153.900 70 1 25.0000 153.900 TC 70 24.9980 153.776 4 72 25.0000 153.900 70 961 180 16 345
1947286N11152 1947 80 WP MM ALICE 1947-10-19 21:00:00 TS 25.7575 153.570 main 1636 1545 P________PPP__ WP181947 25.7454 153.580 67 1 25.7454 153.580 TC 67 25.8304 153.512 4 68 25.7454 153.580 67 967 150 18 340
1947286N11152 1947 80 WP MM ALICE 1947-10-20 00:00:00 TS 26.7000 153.200 main 1537 1418 O________OOO__ jtwc_wp WP181947 26.7000 153.200 65 1 26.7000 153.200 TC 65 26.7000 153.200 4 65 26.7000 153.200 65 973 120 24 343
1947286N11152 1947 80 WP MM ALICE 1947-10-20 03:00:00 TS 28.0070 152.799 main 1411 1307 P________P_P__ WP181947 28.0095 152.769 62 0 28.0095 152.769 TC 62 4 27.9973 152.916 62 978 120 28 351
1947286N11152 1947 80 WP MM ALICE 1947-10-20 06:00:00 TS 29.5000 152.700 main 1300 1255 O________O_O__ jtwc_wp WP181947 29.5000 152.700 60 0 29.5000 152.700 TC 60 4 29.5000 152.700 60 984 120 32 8
1947286N11152 1947 80 WP MM ALICE 1947-10-20 09:00:00 TS 31.1138 153.329 main 1256 1254 P________P____ WP181947 31.1138 153.329 55 0 31.1138 153.329 TC 55 4 33 28
1947286N11152 1947 80 WP MM ALICE 1947-10-20 12:00:00 TS 32.4000 154.500 main 1302 1302 O________O____ jtwc_wp WP181947 32.4000 154.500 50 0 32.4000 154.500 TC 50 27 55
1947286N11152 1947 80 WP MM ALICE 1947-10-20 15:00:00 TS 32.6548 155.892 main 1415 1415 P________P____ WP181947 32.6548 155.892 45 0 32.6548 155.892 TC 45 26 77
1947286N11152 1947 80 WP MM ALICE 1947-10-20 18:00:00 TS 33.0000 157.500 main 1541 1458 O________O____ jtwc_wp WP181947 33.0000 157.500 40 0 33.0000 157.500 TC 40 35 54
1947286N11152 1947 80 WP MM ALICE 1947-10-20 21:00:00 TS 34.6833 159.232 main 1453 1383 P________P____ WP181947 34.6833 159.232 37 0 34.6833 159.232 TC 37 45 39
1947286N11152 1947 80 WP MM ALICE 1947-10-21 00:00:00 TS 36.5000 161.000 main 1380 1372 O________O____ jtwc_wp WP181947 36.5000 161.000 35 0 36.5000 161.000 TC 35 38 45
1947286N11152 1947 80 WP MM ALICE 1947-10-21 03:00:00 TS 37.3586 162.553 main 1393 1393 P________P____ WP181947 37.3586 162.553 35 0 37.3586 162.553 TC 35 28 58
1947286N11152 1947 80 WP MM ALICE 1947-10-21 06:00:00 TS 38.0000 164.000 main 1433 1433 O________O____ jtwc_wp WP181947 38.0000 164.000 35 0 38.0000 164.000 TC 35 28 56
1947286N11152 1947 80 WP MM ALICE 1947-10-21 09:00:00 TS 38.9050 165.471 main 1464 1424 P________P____ WP181947 38.9050 165.471 35 0 38.9050 165.471 TC 35 31 49
1947286N11152 1947 80 WP MM ALICE 1947-10-21 12:00:00 TS 40.0000 167.000 main 1424 O________O____ jtwc_wp WP181947 40.0000 167.000 35 0 40.0000 167.000 TC 35 32 47

Digital Typhoon Data and Search

About IBTrACS Database

This database is a web-friendly format of International Best Track Archive for Climate Stewardship (IBTrACS), a global best track data archive curated by NOAA dating back to 1842.

Updated: 2021-12-03